Time;durP1;ratioP1;P1;durP2;ratioP2;P2;SDS_P1;SDS_P2;PMS_P1;PMS_P2;Temp;Humidity;BMP_temperature;BMP_pressure;BME280_temperature;BME280_humidity;BME280_pressure;Samples;Min_cycle;Max_cycle;Signal;HPM_P1;HPM_P2
2022/04/19 00:00:47;;;;;;;3.55;3.25;;;9.70;91.40;;;;;;4935455;29;20023;-45
2022/04/19 00:03:17;;;;;;;5.32;2.80;;;9.60;92.00;;;;;;4935383;29;20024;-46
2022/04/19 00:05:43;;;;;;;4.72;3.45;;;9.60;92.10;;;;;;4935306;29;20504;-47
2022/04/19 00:08:10;;;;;;;5.63;3.40;;;9.50;92.10;;;;;;4935048;29;20110;-44
2022/04/19 00:10:36;;;;;;;6.05;3.20;;;9.40;90.90;;;;;;4935385;29;20023;-46
2022/04/19 00:13:05;;;;;;;5.60;3.60;;;9.40;91.60;;;;;;4949979;28;20032;-45
2022/04/19 00:15:31;;;;;;;4.15;3.20;;;9.40;91.50;;;;;;4935173;29;20035;-45
2022/04/19 00:17:59;;;;;;;4.30;2.90;;;9.30;91.00;;;;;;4935027;29;20387;-46
2022/04/19 00:20:26;;;;;;;4.50;2.95;;;9.30;91.00;;;;;;4935078;29;20475;-45
2022/04/19 00:22:52;;;;;;;12.02;3.95;;;9.30;91.00;;;;;;4935199;29;20391;-48
2022/04/19 00:25:18;;;;;;;6.18;3.05;;;9.40;91.00;;;;;;4934555;29;20038;-45
2022/04/19 00:27:44;;;;;;;3.78;2.70;;;9.50;91.00;;;;;;4934774;29;20067;-46
2022/04/19 00:30:10;;;;;;;2.90;2.70;;;9.50;90.60;;;;;;4934766;29;20517;-46
2022/04/19 00:32:37;;;;;;;4.28;2.95;;;9.50;90.10;;;;;;4935255;29;20070;-45
2022/04/19 00:35:04;;;;;;;3.03;2.83;;;9.50;89.10;;;;;;4935133;29;20070;-47
2022/04/19 00:37:29;;;;;;;4.28;3.70;;;9.50;88.90;;;;;;4935051;29;20020;-46
2022/04/19 00:39:58;;;;;;;5.15;3.45;;;9.40;89.10;;;;;;4935171;29;20103;-46
2022/04/19 00:42:27;;;;;;;6.68;3.95;;;9.30;89.90;;;;;;4935323;29;20023;-45
2022/04/19 00:44:54;;;;;;;9.38;3.78;;;9.20;90.20;;;;;;4934786;29;20027;-45
2022/04/19 00:47:19;;;;;;;5.65;3.00;;;9.10;90.20;;;;;;4934868;29;20028;-46
2022/04/19 00:49:45;;;;;;;3.70;2.97;;;9.20;90.60;;;;;;4949548;29;20122;-45
2022/04/19 00:52:12;;;;;;;3.67;3.00;;;9.10;91.20;;;;;;4934648;29;20060;-47
2022/04/19 00:54:37;;;;;;;3.80;3.15;;;9.20;91.40;;;;;;4934481;29;20090;-46
2022/04/19 00:57:03;;;;;;;3.08;2.80;;;9.10;91.70;;;;;;4933969;29;20094;-47
2022/04/19 00:59:29;;;;;;;3.63;3.05;;;9.10;90.60;;;;;;4949006;28;20054;-47
2022/04/19 01:01:55;;;;;;;4.28;3.03;;;9.00;90.40;;;;;;4935218;29;20034;-47
2022/04/19 01:04:21;;;;;;;8.50;3.00;;;9.00;90.40;;;;;;4935100;29;20031;-48
2022/04/19 01:06:46;;;;;;;4.47;3.45;;;9.00;90.20;;;;;;4934261;29;20386;-49
2022/04/19 01:09:13;;;;;;;5.93;3.28;;;9.10;89.90;;;;;;4948806;28;20499;-48
2022/04/19 01:14:24;;;;;;;5.85;3.30;;;9.00;89.70;;;;;;4934653;29;20038;-46
2022/04/19 01:16:50;;;;;;;3.92;3.13;;;8.90;89.70;;;;;;4934041;29;20035;-45
2022/04/19 01:19:16;;;;;;;5.13;2.92;;;8.80;90.00;;;;;;4934140;29;20034;-47
2022/04/19 01:21:54;;;;;;;3.70;3.20;;;8.70;90.20;;;;;;4934208;29;20032;-47
2022/04/19 01:24:21;;;;;;;4.07;3.00;;;8.70;90.40;;;;;;4934191;29;20024;-46
2022/04/19 01:26:48;;;;;;;3.15;2.83;;;8.70;91.00;;;;;;4933936;29;20508;-51
2022/04/19 01:29:15;;;;;;;3.63;3.17;;;8.70;92.10;;;;;;4933933;29;20488;-49
2022/04/19 01:31:41;;;;;;;4.78;3.15;;;8.70;91.10;;;;;;4934107;29;20036;-53
2022/04/19 01:34:08;;;;;;;2.97;2.70;;;8.70;92.00;;;;;;4934110;29;20027;-52
2022/04/19 01:36:37;;;;;;;3.47;3.00;;;8.70;92.50;;;;;;4948626;28;20110;-51
2022/04/19 01:39:08;;;;;;;3.85;3.20;;;8.70;92.30;;;;;;4952243;28;20019;-50
2022/04/19 01:41:34;;;;;;;10.85;3.08;;;8.60;92.40;;;;;;4937958;29;20078;-51
2022/04/19 01:44:00;;;;;;;4.38;3.15;;;8.60;92.30;;;;;;4952345;29;20023;-50
2022/04/19 01:46:26;;;;;;;3.25;2.55;;;8.60;91.90;;;;;;4937335;29;20028;-50
2022/04/19 01:48:54;;;;;;;3.38;2.83;;;8.50;91.20;;;;;;4937397;29;20102;-47
2022/04/19 01:51:21;;;;;;;6.80;3.00;;;8.50;91.20;;;;;;4937745;29;20488;-51
2022/04/19 01:53:47;;;;;;;3.28;2.78;;;8.40;91.10;;;;;;4937804;29;20510;-48
2022/04/19 01:56:13;;;;;;;3.13;2.67;;;8.30;91.30;;;;;;4952098;29;20519;-51
2022/04/19 01:58:39;;;;;;;2.85;2.65;;;8.30;91.40;;;;;;4937249;29;20039;-52
2022/04/19 02:01:04;;;;;;;2.58;2.38;;;8.30;91.10;;;;;;4937288;29;20027;-49
2022/04/19 02:03:30;;;;;;;5.15;2.95;;;8.30;91.20;;;;;;4937874;29;20027;-45
2022/04/19 02:05:55;;;;;;;4.35;3.53;;;8.20;91.30;;;;;;4937571;29;20036;-47
2022/04/19 02:08:21;;;;;;;4.75;2.85;;;8.20;91.20;;;;;;4937154;29;20031;-46
2022/04/19 02:10:47;;;;;;;3.78;2.92;;;8.20;91.20;;;;;;4937152;29;20488;-48
2022/04/19 02:13:13;;;;;;;4.68;2.50;;;8.30;91.30;;;;;;4937161;29;20023;-53
2022/04/19 02:15:39;;;;;;;7.28;3.97;;;8.20;91.10;;;;;;4936908;29;20106;-49
2022/04/19 02:18:05;;;;;;;3.53;2.90;;;8.30;91.00;;;;;;4936760;29;20071;-53
2022/04/19 02:20:31;;;;;;;2.90;2.58;;;8.30;90.80;;;;;;4936957;29;20024;-50
2022/04/19 02:22:56;;;;;;;4.43;3.28;;;8.40;90.60;;;;;;4936936;29;20079;-48
2022/04/19 02:25:24;;;;;;;3.80;3.13;;;8.40;90.70;;;;;;4936664;29;20479;-51
2022/04/19 02:27:50;;;;;;;6.65;3.20;;;8.40;90.50;;;;;;4936869;29;20391;-48
2022/04/19 02:30:16;;;;;;;5.22;2.78;;;8.30;90.50;;;;;;4936633;29;20023;-51
2022/04/19 02:32:47;;;;;;;3.00;2.70;;;8.40;90.30;;;;;;4936699;29;20035;-49
2022/04/19 02:35:15;;;;;;;3.55;2.85;;;8.50;90.30;;;;;;4936625;29;20443;-47
2022/04/19 02:37:52;;;;;;;7.68;3.80;;;8.40;90.00;;;;;;4951342;28;20027;-44
2022/04/19 02:40:19;;;;;;;3.15;2.72;;;8.50;90.00;;;;;;4936409;29;20030;-49
2022/04/19 02:42:45;;;;;;;4.35;2.67;;;8.40;89.80;;;;;;4951413;29;20176;-46
2022/04/19 02:45:11;;;;;;;3.50;2.55;;;8.50;89.70;;;;;;4936138;29;20530;-50
2022/04/19 02:47:37;;;;;;;3.65;2.90;;;8.50;89.40;;;;;;4935880;29;20102;-46
2022/04/19 02:50:03;;;;;;;7.63;2.63;;;8.50;89.20;;;;;;4936531;29;20023;-45
2022/04/19 02:52:28;;;;;;;4.13;3.20;;;8.50;89.10;;;;;;4936473;29;20622;-52
2022/04/19 02:54:53;;;;;;;2.92;2.63;;;8.50;89.10;;;;;;4950884;29;20115;-50
2022/04/19 02:57:19;;;;;;;5.15;2.95;;;8.50;88.70;;;;;;4936006;29;20028;-48
2022/04/19 02:59:45;;;;;;;3.92;2.75;;;8.50;89.00;;;;;;4951089;29;20404;-45
2022/04/19 03:02:11;;;;;;;3.20;2.65;;;8.40;88.80;;;;;;4951492;29;20083;-45
2022/04/19 03:04:37;;;;;;;4.32;2.80;;;8.40;88.70;;;;;;4936364;29;20027;-48
2022/04/19 03:07:05;;;;;;;2.97;2.70;;;8.40;88.90;;;;;;4935952;29;20052;-46
2022/04/19 03:09:31;;;;;;;3.63;2.63;;;8.30;88.80;;;;;;4936051;29;20037;-47
2022/04/19 03:11:56;;;;;;;4.43;2.90;;;8.30;88.70;;;;;;4936094;29;20413;-46
2022/04/19 03:14:22;;;;;;;2.78;2.55;;;8.40;88.20;;;;;;4936611;29;20027;-45
2022/04/19 03:16:47;;;;;;;2.80;2.60;;;8.40;88.20;;;;;;4950816;29;20128;-45
2022/04/19 03:19:14;;;;;;;5.95;2.78;;;8.50;87.80;;;;;;4936243;29;20035;-48
2022/04/19 03:21:40;;;;;;;4.68;3.13;;;8.50;87.40;;;;;;4951129;29;20028;-47
2022/04/19 03:29:34;;;;;;;2.90;2.60;;;8.40;87.60;;;;;;4935719;29;20071;-47
2022/04/19 03:32:00;;;;;;;3.22;2.60;;;8.30;87.70;;;;;;4935789;29;20032;-43
2022/04/19 03:34:26;;;;;;;2.88;2.67;;;8.20;87.80;;;;;;4950298;28;20054;-45
2022/04/19 03:36:52;;;;;;;2.83;2.55;;;8.20;87.80;;;;;;4950201;29;20146;-49
2022/04/19 03:39:18;;;;;;;5.85;2.70;;;8.20;88.20;;;;;;4935568;29;20439;-46
2022/04/19 03:41:44;;;;;;;3.97;2.67;;;8.10;88.10;;;;;;4935672;29;20055;-46
2022/04/19 03:44:11;;;;;;;3.78;2.92;;;8.10;88.10;;;;;;4935485;29;20070;-48
2022/04/19 03:47:07;;;;;;;4.07;2.60;;;8.00;88.50;;;;;;4934974;29;20027;-46
2022/04/19 03:49:24;;;;;;;3.45;2.70;;;8.10;88.20;;;;;;4935317;29;20069;-47
2022/04/19 03:51:49;;;;;;;4.93;2.60;;;8.00;88.30;;;;;;4935326;29;20107;-48
2022/04/19 03:54:15;;;;;;;4.63;2.95;;;8.00;88.20;;;;;;4935237;29;20134;-50
2022/04/19 03:56:41;;;;;;;2.40;2.20;;;7.90;88.20;;;;;;4935127;29;20041;-51
2022/04/19 03:59:09;;;;;;;3.88;2.58;;;7.90;88.20;;;;;;4934632;29;20099;-50
2022/04/19 04:01:36;;;;;;;3.25;2.60;;;7.90;88.20;;;;;;4934747;29;20024;-47
2022/04/19 04:04:02;;;;;;;6.45;2.80;;;7.90;88.20;;;;;;4935094;29;20099;-46
2022/04/19 04:06:28;;;;;;;4.10;3.10;;;7.90;88.40;;;;;;4934985;29;20031;-49
2022/04/19 04:08:53;;;;;;;2.97;2.53;;;7.90;88.30;;;;;;4934722;29;20035;-48
2022/04/19 04:11:19;;;;;;;3.72;2.58;;;7.90;88.30;;;;;;4949698;29;20066;-45
2022/04/19 04:13:44;;;;;;;3.08;2.80;;;7.90;88.20;;;;;;4934931;29;20111;-46
2022/04/19 04:16:10;;;;;;;2.67;2.47;;;7.90;88.30;;;;;;4935081;29;20028;-49
2022/04/19 04:18:35;;;;;;;3.92;2.40;;;8.00;88.10;;;;;;4934801;29;20102;-45
2022/04/19 04:21:01;;;;;;;4.47;2.92;;;8.00;88.30;;;;;;4934932;29;20052;-49
2022/04/19 04:23:26;;;;;;;3.28;2.97;;;8.00;89.50;;;;;;4934952;29;20491;-53
2022/04/19 04:25:52;;;;;;;4.38;2.97;;;8.00;89.20;;;;;;4934878;29;20040;-46
2022/04/19 04:28:17;;;;;;;3.08;2.75;;;8.00;89.90;;;;;;4934500;29;20132;-49
2022/04/19 04:30:43;;;;;;;5.38;2.72;;;8.00;90.40;;;;;;4935158;29;20031;-51
2022/04/19 04:33:08;;;;;;;5.40;2.90;;;8.00;91.00;;;;;;4935660;29;20115;-52
2022/04/19 04:35:34;;;;;;;2.80;2.50;;;8.00;92.20;;;;;;4935541;29;20052;-50
2022/04/19 04:37:59;;;;;;;4.45;3.28;;;7.90;93.00;;;;;;4935542;29;20357;-46
2022/04/19 04:40:25;;;;;;;4.28;2.38;;;7.90;92.70;;;;;;4935366;29;20031;-50
2022/04/19 04:42:50;;;;;;;3.20;2.95;;;7.80;92.60;;;;;;4934846;29;20392;-46
2022/04/19 04:45:16;;;;;;;4.28;2.55;;;7.80;93.00;;;;;;4934279;29;20103;-47
2022/04/19 04:50:25;;;;;;;3.60;2.40;;;7.60;93.50;;;;;;4934729;29;20516;-49
2022/04/19 04:52:53;;;;;;;3.00;2.75;;;7.50;93.40;;;;;;4949095;29;20149;-47
2022/04/19 04:55:18;;;;;;;3.05;2.72;;;7.60;93.60;;;;;;4934552;29;20024;-47
2022/04/19 04:57:44;;;;;;;3.97;2.97;;;7.60;93.30;;;;;;4934353;29;20024;-46
2022/04/19 05:00:10;;;;;;;4.45;3.22;;;7.70;93.50;;;;;;4934505;29;20483;-46
2022/04/19 05:02:35;;;;;;;2.80;2.50;;;7.90;92.20;;;;;;4934490;29;20310;-47
2022/04/19 05:05:01;;;;;;;8.90;3.28;;;8.20;90.70;;;;;;4934636;29;20083;-49
2022/04/19 05:07:26;;;;;;;4.10;3.03;;;8.30;89.20;;;;;;4933959;29;20090;-48
2022/04/19 05:09:52;;;;;;;4.65;3.10;;;8.50;88.40;;;;;;4934379;29;20551;-46
2022/04/19 05:12:17;;;;;;;4.57;2.90;;;8.60;88.50;;;;;;4951930;28;20372;-49
2022/04/19 05:14:43;;;;;;;3.13;2.83;;;8.60;88.40;;;;;;4938276;29;20035;-49
2022/04/19 05:17:08;;;;;;;2.90;2.58;;;8.70;88.10;;;;;;4952697;28;20028;-49
2022/04/19 05:19:35;;;;;;;4.13;3.05;;;8.70;87.20;;;;;;4938500;29;20153;-46
2022/04/19 05:22:00;;;;;;;4.68;3.45;;;8.80;87.10;;;;;;4937294;29;20031;-48
2022/04/19 05:24:26;;;;;;;4.32;2.90;;;8.90;86.80;;;;;;4938728;29;20024;-48
2022/04/19 05:26:51;;;;;;;3.85;2.97;;;9.00;85.70;;;;;;4969601;23;20411;-50
2022/04/19 05:29:17;;;;;;;6.65;3.30;;;9.20;85.40;;;;;;4976549;28;20479;-51
2022/04/19 05:31:42;;;;;;;3.38;3.00;;;9.30;84.80;;;;;;4976111;28;20022;-42
2022/04/19 05:34:08;;;;;;;3.65;3.05;;;9.50;84.40;;;;;;4977026;28;20029;-49
2022/04/19 05:36:35;;;;;;;3.38;3.00;;;9.50;84.70;;;;;;4976653;28;20038;-52
2022/04/19 05:39:00;;;;;;;7.03;3.10;;;9.60;83.90;;;;;;4976663;28;20074;-47
2022/04/19 05:41:26;;;;;;;4.35;2.83;;;9.70;83.30;;;;;;4977223;28;20030;-46
2022/04/19 05:43:52;;;;;;;4.13;3.05;;;9.70;83.60;;;;;;4976767;28;20585;-48
2022/04/19 05:46:18;;;;;;;3.90;2.83;;;9.60;83.90;;;;;;4976152;28;20147;-51
2022/04/19 05:48:46;;;;;;;4.28;2.70;;;9.70;84.20;;;;;;4976426;28;20030;-42
2022/04/19 05:51:12;;;;;;;5.18;2.70;;;9.90;83.00;;;;;;4976786;28;20046;-50
2022/04/19 05:53:41;;;;;;;2.72;2.53;;;10.20;81.60;;;;;;4976927;28;20027;-47
2022/04/19 05:56:07;;;;;;;5.43;3.47;;;10.20;81.80;;;;;;4976807;28;20521;-47
2022/04/19 05:58:33;;;;;;;3.38;3.08;;;10.20;81.60;;;;;;4976144;28;20050;-50
2022/04/19 06:00:59;;;;;;;4.28;2.90;;;10.30;81.30;;;;;;4976660;28;20066;-49
2022/04/19 06:06:08;;;;;;;4.32;3.42;;;10.10;81.80;;;;;;4976532;28;20399;-48
2022/04/19 06:08:34;;;;;;;3.92;2.95;;;10.00;81.70;;;;;;4976137;28;20031;-44
2022/04/19 06:11:00;;;;;;;3.45;3.10;;;10.00;81.80;;;;;;4976281;28;20027;-44
2022/04/19 06:13:26;;;;;;;5.30;3.00;;;10.10;81.80;;;;;;4976617;28;20030;-47
2022/04/19 06:15:51;;;;;;;3.40;3.10;;;10.00;81.60;;;;;;4975870;28;20030;-48
2022/04/19 06:18:17;;;;;;;6.65;2.75;;;10.10;80.70;;;;;;4975826;28;20467;-45
2022/04/19 06:20:42;;;;;;;3.03;2.83;;;10.10;80.30;;;;;;4976140;28;20023;-43
2022/04/19 06:23:09;;;;;;;4.63;3.13;;;10.10;80.00;;;;;;4974450;28;20019;-49
2022/04/19 06:25:34;;;;;;;4.38;3.63;;;10.10;80.50;;;;;;4974810;28;20030;-48
2022/04/19 06:27:59;;;;;;;7.00;3.83;;;9.90;81.10;;;;;;4976029;28;20041;-43
2022/04/19 06:30:25;;;;;;;6.15;3.58;;;9.80;81.60;;;;;;4976466;28;20031;-47
2022/04/19 06:32:51;;;;;;;3.58;2.95;;;9.80;81.90;;;;;;4975450;28;20479;-46
2022/04/19 06:35:17;;;;;;;3.33;3.00;;;9.90;81.80;;;;;;4975224;28;20031;-46
2022/04/19 06:37:42;;;;;;;6.90;3.40;;;10.00;81.90;;;;;;4974999;28;20027;-49
2022/04/19 06:40:09;;;;;;;4.53;2.63;;;10.40;81.70;;;;;;4975217;28;20443;-46
2022/04/19 06:42:35;;;;;;;2.70;2.50;;;10.80;80.70;;;;;;4975562;28;20025;-53
2022/04/19 06:45:01;;;;;;;7.28;3.47;;;11.20;80.30;;;;;;4975002;28;20534;-51
2022/04/19 06:47:27;;;;;;;4.18;2.45;;;11.60;77.90;;;;;;4975125;28;20089;-50
2022/04/19 06:49:57;;;;;;;3.63;3.33;;;11.90;77.00;;;;;;4975265;28;20027;-47
2022/04/19 06:52:23;;;;;;;5.32;2.70;;;12.10;76.00;;;;;;4976089;28;20049;-46
2022/04/19 06:54:48;;;;;;;5.72;3.13;;;12.30;76.20;;;;;;4975529;28;20054;-47
2022/04/19 06:57:14;;;;;;;5.68;2.60;;;12.80;74.50;;;;;;4975970;28;20030;-50
2022/04/19 06:59:39;;;;;;;3.20;2.88;;;13.50;74.00;;;;;;4975727;28;20031;-49
2022/04/19 07:02:05;;;;;;;4.13;3.25;;;14.10;71.20;;;;;;4976279;28;20042;-47
2022/04/19 07:04:31;;;;;;;3.55;2.50;;;14.80;71.50;;;;;;4975882;28;20157;-47
2022/04/19 07:06:56;;;;;;;5.47;3.25;;;15.10;70.10;;;;;;4974964;28;20106;-45
2022/04/19 07:09:22;;;;;;;4.32;3.20;;;14.90;68.30;;;;;;4973014;28;20057;-50
2022/04/19 07:11:47;;;;;;;3.45;3.15;;;14.70;68.50;;;;;;4980516;28;20511;-43
2022/04/19 07:14:13;;;;;;;3.33;3.03;;;14.40;70.10;;;;;;4979739;28;20038;-46
2022/04/19 07:16:38;;;;;;;3.55;2.85;;;14.10;70.30;;;;;;4975093;28;20526;-49
2022/04/19 07:19:04;;;;;;;5.07;3.80;;;14.00;71.20;;;;;;4973750;28;20058;-44
2022/04/19 07:26:59;;;;;;;4.55;3.60;;;14.10;70.90;;;;;;4990215;28;20124;-46
2022/04/19 07:29:24;;;;;;;3.28;2.97;;;14.20;70.90;;;;;;4991958;28;20106;-47
2022/04/19 07:31:51;;;;;;;10.25;3.17;;;14.40;70.70;;;;;;4973709;28;20440;-46
2022/04/19 07:34:17;;;;;;;4.60;2.88;;;14.50;70.40;;;;;;4971835;28;20093;-44
2022/04/19 07:36:43;;;;;;;4.32;2.90;;;14.90;69.40;;;;;;4995546;28;20490;-44
2022/04/19 07:39:13;;;;;;;3.35;3.00;;;15.10;68.20;;;;;;4993571;28;20029;-46
2022/04/19 07:41:39;;;;;;;4.55;3.50;;;15.20;68.20;;;;;;4979441;28;20023;-47
2022/04/19 07:44:06;;;;;;;5.03;3.63;;;15.90;67.00;;;;;;4978529;28;20030;-48
2022/04/19 07:46:32;;;;;;;4.72;3.10;;;16.70;65.30;;;;;;4995326;28;20043;-48
2022/04/19 07:48:58;;;;;;;4.55;3.95;;;17.40;63.60;;;;;;4973857;28;20527;-50
2022/04/19 07:51:24;;;;;;;11.02;3.85;;;17.40;62.30;;;;;;4973488;28;20093;-46
2022/04/19 07:53:50;;;;;;;4.80;3.90;;;17.60;63.20;;;;;;4974166;28;20031;-50
2022/04/19 07:56:16;;;;;;;3.33;2.90;;;17.80;62.50;;;;;;4974190;28;20102;-46
2022/04/19 07:58:47;;;;;;;5.68;3.67;;;18.20;61.30;;;;;;4975101;28;20314;-48
2022/04/19 08:01:13;;;;;;;7.93;3.35;;;18.00;60.50;;;;;;4973127;28;20019;-49
2022/04/19 08:03:39;;;;;;;6.55;3.92;;;18.00;60.60;;;;;;4973471;28;20027;-49
2022/04/19 08:06:04;;;;;;;5.53;3.92;;;18.80;60.50;;;;;;4972917;28;20029;-49
2022/04/19 08:08:30;;;;;;;7.22;3.75;;;19.60;59.10;;;;;;4971607;28;20042;-45
2022/04/19 08:10:56;;;;;;;3.90;3.50;;;20.60;56.90;;;;;;4971785;28;20379;-46
2022/04/19 08:13:21;;;;;;;13.48;4.28;;;21.00;56.10;;;;;;4973456;28;20081;-50
2022/04/19 08:15:47;;;;;;;6.97;4.60;;;21.20;55.20;;;;;;4972973;28;20494;-50
2022/04/19 08:18:16;;;;;;;60.17;46.42;;;21.60;55.20;;;;;;4972938;28;20050;-46
2022/04/19 08:20:42;;;;;;;10.70;5.75;;;22.30;55.50;;;;;;4973140;28;20019;-51
2022/04/19 08:23:09;;;;;;;4.63;3.78;;;22.10;53.50;;;;;;4988305;28;20034;-44
2022/04/19 08:25:36;;;;;;;4.50;3.63;;;21.90;53.80;;;;;;4973107;28;20027;-46
2022/04/19 08:28:01;;;;;;;5.10;3.95;;;21.60;54.40;;;;;;4973171;28;20042;-46
2022/04/19 08:30:27;;;;;;;5.75;4.10;;;21.10;54.40;;;;;;4973072;28;20026;-48
2022/04/19 08:32:53;;;;;;;8.93;5.22;;;20.20;55.80;;;;;;4973072;28;20486;-46
2022/04/19 08:35:18;;;;;;;7.13;5.20;;;20.50;55.10;;;;;;4972945;28;20035;-46
2022/04/19 08:37:48;;;;;;;7.05;5.28;;;21.20;54.00;;;;;;4972597;28;20027;-54
2022/04/19 08:40:14;;;;;;;10.07;5.75;;;21.00;53.00;;;;;;4973000;28;20014;-48
2022/04/19 08:42:40;;;;;;;8.77;5.10;;;20.80;53.20;;;;;;4972585;28;20491;-49
2022/04/19 08:45:08;;;;;;;7.65;4.72;;;20.70;54.00;;;;;;4972091;28;20030;-49
2022/04/19 08:47:43;;;;;;;5.95;5.22;;;21.40;53.80;;;;;;4971823;28;20038;-50
2022/04/19 08:50:14;;;;;;;8.73;4.55;;;21.40;51.80;;;;;;4972938;28;20027;-47
2022/04/19 08:52:40;;;;;;;6.63;5.10;;;21.70;52.10;;;;;;4972453;28;20039;-52
2022/04/19 08:57:52;;;;;;;5.13;4.55;;;20.80;53.50;;;;;;4987292;28;20053;-54
2022/04/19 09:00:22;;;;;;;6.35;5.30;;;20.90;54.00;;;;;;4971820;28;20027;-47
2022/04/19 09:02:48;;;;;;;7.15;5.10;;;21.40;52.90;;;;;;4969772;28;20026;-48
2022/04/19 09:05:16;;;;;;;8.13;4.90;;;21.90;52.30;;;;;;4971668;28;20027;-49
2022/04/19 09:07:43;;;;;;;9.05;6.22;;;21.00;51.90;;;;;;4971693;28;20018;-50
2022/04/19 09:10:15;;;;;;;7.50;5.72;;;20.30;53.00;;;;;;4971839;28;20030;-44
2022/04/19 09:13:21;;;;;;;7.22;5.18;;;19.80;54.90;;;;;;4974125;28;20030;-47
2022/04/19 09:15:47;;;;;;;9.20;5.32;;;19.30;52.70;;;;;;4971303;28;20055;-45
2022/04/19 09:18:13;;;;;;;6.07;5.15;;;19.10;54.00;;;;;;4977153;28;20495;-46
2022/04/19 09:20:39;;;;;;;7.38;5.53;;;18.40;54.60;;;;;;4972492;28;20514;-45
2022/04/19 09:23:07;;;;;;;7.05;5.90;;;18.50;55.00;;;;;;4972146;28;20027;-50
2022/04/19 09:25:34;;;;;;;10.10;5.22;;;18.70;55.30;;;;;;4970992;28;20098;-47
2022/04/19 09:28:02;;;;;;;7.65;6.35;;;19.40;56.10;;;;;;4971779;28;20046;-44
2022/04/19 09:30:28;;;;;;;7.85;6.45;;;19.20;53.80;;;;;;4970983;28;20033;-48
2022/04/19 09:33:04;;;;;;;12.63;6.13;;;18.80;52.40;;;;;;4971887;28;20033;-45
2022/04/19 09:35:34;;;;;;;8.23;5.88;;;18.40;54.80;;;;;;4972357;28;20118;-46
2022/04/19 09:37:59;;;;;;;6.53;5.57;;;18.30;55.70;;;;;;4972154;28;20078;-47
2022/04/19 09:40:28;;;;;;;7.03;5.68;;;18.30;56.00;;;;;;4972060;28;20030;-43
2022/04/19 09:42:57;;;;;;;8.05;6.35;;;18.70;56.90;;;;;;4972351;28;20031;-46
2022/04/19 09:45:26;;;;;;;7.85;5.95;;;18.70;55.50;;;;;;4972582;28;20042;-47
2022/04/19 09:47:54;;;;;;;11.45;5.47;;;18.50;55.20;;;;;;4971786;28;20564;-50
2022/04/19 09:50:20;;;;;;;9.55;5.95;;;18.60;56.40;;;;;;4972153;28;20495;-49
2022/04/19 09:52:50;;;;;;;7.75;5.90;;;18.60;55.10;;;;;;4972027;28;20018;-47
2022/04/19 09:55:17;;;;;;;8.52;6.30;;;18.40;55.60;;;;;;4972147;28;20034;-48
2022/04/19 09:57:47;;;;;;;7.93;6.43;;;18.20;56.20;;;;;;4986876;28;20030;-50
2022/04/19 10:00:15;;;;;;;7.90;6.20;;;17.90;55.20;;;;;;4975852;28;20106;-49
2022/04/19 10:08:10;;;;;;;10.00;6.88;;;17.60;57.60;;;;;;4976896;28;20046;-48
2022/04/19 10:10:40;;;;;;;9.98;7.47;;;17.70;56.10;;;;;;4976927;28;20023;-45
2022/04/19 10:13:06;;;;;;;8.35;6.60;;;17.70;56.40;;;;;;4975426;28;20521;-46
2022/04/19 10:15:32;;;;;;;9.52;6.13;;;17.70;56.70;;;;;;4975311;28;20031;-48
2022/04/19 10:17:58;;;;;;;10.95;6.68;;;18.00;57.40;;;;;;4975246;28;20560;-44
2022/04/19 10:20:32;;;;;;;10.75;6.50;;;17.70;56.40;;;;;;4973593;28;20062;-47
2022/04/19 10:23:03;;;;;;;8.73;6.72;;;17.60;57.60;;;;;;4975395;28;20015;-46
2022/04/19 10:25:40;;;;;;;10.15;7.57;;;17.50;57.70;;;;;;4990193;28;20042;-49
2022/04/19 10:28:08;;;;;;;10.88;6.97;;;17.80;58.00;;;;;;4974948;28;20041;-46
2022/04/19 10:30:36;;;;;;;9.55;6.30;;;17.90;57.30;;;;;;4975262;28;20398;-41
2022/04/19 10:33:21;;;;;;;10.68;7.50;;;18.10;57.10;;;;;;4974911;28;20031;-49
2022/04/19 10:36:16;;;;;;;10.60;6.85;;;17.80;56.30;;;;;;4975065;28;20113;-45
2022/04/19 10:38:43;;;;;;;11.90;6.40;;;18.00;57.00;;;;;;4974360;28;20089;-48
2022/04/19 10:41:09;;;;;;;42.30;30.65;;;18.10;57.10;;;;;;4974126;28;20380;-47
2022/04/19 10:43:35;;;;;;;23.50;14.68;;;18.20;56.60;;;;;;4973259;28;20019;-49
2022/04/19 10:46:20;;;;;;;8.40;6.65;;;18.10;56.10;;;;;;4974140;28;20058;-43
2022/04/19 10:49:22;;;;;;;7.97;6.30;;;18.00;56.20;;;;;;4973699;28;20019;-45
2022/04/19 10:51:48;;;;;;;10.70;6.38;;;18.20;55.90;;;;;;4975475;28;20085;-46
2022/04/19 10:54:14;;;;;;;7.53;6.00;;;18.20;54.90;;;;;;4992775;28;20045;-48
2022/04/19 11:00:00;;;;;;;17.02;7.20;;;18.20;54.80;;;;;;4994417;28;20146;-47
2022/04/19 11:02:36;;;;;;;8.75;7.13;;;18.30;54.00;;;;;;4976567;28;20038;-48
2022/04/19 11:05:02;;;;;;;;;;;18.00;54.70;;;;;;4974634;28;20033;-48
2022/04/19 11:07:43;;;;;;;9.85;6.72;;;17.80;55.00;;;;;;4974386;28;20358;-54
2022/04/19 11:10:09;;;;;;;8.95;6.70;;;17.90;55.00;;;;;;4974051;28;20037;-45
2022/04/19 11:12:58;;;;;;;8.13;6.15;;;17.90;55.20;;;;;;4974367;28;20466;-47
2022/04/19 11:15:37;;;;;;;8.85;6.93;;;18.20;55.10;;;;;;4974440;28;20022;-47
2022/04/19 11:18:23;;;;;;;7.65;6.53;;;18.30;54.90;;;;;;4974280;28;20019;-47
2022/04/19 11:20:52;;;;;;;9.68;5.78;;;18.30;55.30;;;;;;4974382;28;20487;-47
2022/04/19 11:23:20;;;;;;;10.18;5.78;;;18.30;55.90;;;;;;4974347;28;20031;-47
2022/04/19 11:25:46;;;;;;;7.13;5.43;;;18.30;55.70;;;;;;4974065;28;20399;-41
2022/04/19 11:28:11;;;;;;;15.45;6.03;;;18.10;56.50;;;;;;4987050;23;20076;-47
2022/04/19 11:30:57;;;;;;;10.48;6.13;;;18.10;55.20;;;;;;4974730;28;20027;-45
2022/04/19 11:33:28;;;;;;;10.13;6.45;;;18.20;55.10;;;;;;4972040;28;20022;-46
2022/04/19 11:36:02;;;;;;;8.13;5.75;;;18.00;54.90;;;;;;4974629;28;20034;-48
2022/04/19 11:38:30;;;;;;;6.07;5.35;;;18.00;55.40;;;;;;4974027;28;20041;-48
2022/04/19 11:46:46;;;;;;;9.25;6.80;;;17.90;54.10;;;;;;4974316;28;20037;-47
2022/04/19 11:49:25;;;;;;;9.25;7.03;;;17.60;54.50;;;;;;4974018;28;20153;-49
2022/04/19 11:51:56;;;;;;;9.05;7.25;;;17.50;55.40;;;;;;4974193;28;20513;-46
2022/04/19 11:54:30;;;;;;;9.15;6.70;;;17.50;55.30;;;;;;4972822;28;20031;-47
2022/04/19 11:56:58;;;;;;;9.55;6.70;;;17.50;54.40;;;;;;4973571;28;20402;-46
2022/04/19 11:59:28;;;;;;;12.88;7.13;;;17.40;56.00;;;;;;4973735;28;20015;-46
2022/04/19 12:01:54;;;;;;;7.60;5.68;;;17.50;54.10;;;;;;4973888;28;20085;-47
2022/04/19 12:04:20;;;;;;;8.57;6.05;;;17.60;55.10;;;;;;4973860;28;20106;-49
2022/04/19 12:06:57;;;;;;;8.95;6.80;;;17.60;54.60;;;;;;4973436;28;20023;-45
2022/04/19 12:09:22;;;;;;;11.02;5.70;;;17.80;54.70;;;;;;4973598;28;20491;-49
2022/04/19 12:11:49;;;;;;;8.40;5.47;;;17.70;53.90;;;;;;4973758;28;20042;-48
2022/04/19 12:14:24;;;;;;;10.95;5.20;;;17.60;54.40;;;;;;4973799;28;20089;-47
2022/04/19 12:17:03;;;;;;;8.65;5.80;;;17.70;55.80;;;;;;4971661;28;20499;-48
2022/04/19 12:19:42;;;;;;;11.30;5.30;;;17.70;55.60;;;;;;4973941;28;20114;-43
2022/04/19 12:22:34;;;;;;;6.60;5.07;;;17.80;57.40;;;;;;4973078;28;20145;-48
2022/04/19 12:25:02;;;;;;;5.18;4.68;;;17.90;55.70;;;;;;4971135;28;20059;-45
2022/04/19 12:27:29;;;;;;;7.25;4.47;;;18.20;56.30;;;;;;4988038;28;20035;-47
2022/04/19 12:30:12;;;;;;;6.05;5.10;;;18.10;53.00;;;;;;4972143;28;20033;-47
2022/04/19 12:32:56;;;;;;;4.22;3.83;;;18.10;54.30;;;;;;4973440;28;20031;-48
2022/04/19 12:35:37;;;;;;;5.50;3.90;;;18.00;54.70;;;;;;4973435;28;20046;-46
2022/04/19 12:38:16;;;;;;;3.53;3.22;;;17.90;52.10;;;;;;4973165;28;20026;-50
2022/04/19 12:40:48;;;;;;;9.80;3.25;;;17.80;51.90;;;;;;4973392;28;20019;-43
2022/04/19 12:43:15;;;;;;;36.85;25.23;;;17.80;52.50;;;;;;4973355;28;20026;-49
2022/04/19 12:45:41;;;;;;;21.45;15.70;;;17.70;52.80;;;;;;4973160;28;20558;-45
2022/04/19 12:48:23;;;;;;;9.63;5.53;;;17.80;52.70;;;;;;4971329;28;20178;-42
2022/04/19 12:51:03;;;;;;;2.60;2.40;;;17.80;52.60;;;;;;4972892;28;20058;-49
2022/04/19 12:53:29;;;;;;;3.05;2.58;;;17.90;52.40;;;;;;4973030;28;20038;-46
2022/04/19 12:55:54;;;;;;;2.55;2.28;;;18.00;52.10;;;;;;4972804;28;20023;-47
2022/04/19 12:58:20;;;;;;;5.75;2.10;;;18.10;53.20;;;;;;4987511;28;20062;-47
2022/04/19 13:00:45;;;;;;;2.78;2.58;;;18.00;50.90;;;;;;4972837;28;20077;-44
2022/04/19 13:03:11;;;;;;;3.10;2.80;;;18.00;52.70;;;;;;4971700;28;20031;-45
2022/04/19 13:13:48;;;;;;;6.25;3.33;;;17.90;53.50;;;;;;4972638;28;20081;-48
2022/04/19 13:16:14;;;;;;;4.70;3.17;;;17.90;54.50;;;;;;4987178;28;20039;-47
2022/04/19 13:18:39;;;;;;;4.32;3.28;;;17.90;56.20;;;;;;4972370;28;20402;-46
2022/04/19 13:21:06;;;;;;;5.10;3.45;;;17.90;55.10;;;;;;4972742;28;20030;-48
2022/04/19 13:23:32;;;;;;;5.45;3.22;;;17.90;55.20;;;;;;4972634;28;20118;-47
2022/04/19 13:25:57;;;;;;;3.63;3.10;;;17.80;55.70;;;;;;4972641;28;20026;-47
2022/04/19 13:28:25;;;;;;;4.22;3.10;;;17.90;54.50;;;;;;4971991;28;20417;-44
2022/04/19 13:30:54;;;;;;;3.45;3.17;;;17.90;54.10;;;;;;4972828;28;20026;-47
2022/04/19 13:33:20;;;;;;;3.78;2.95;;;17.90;54.00;;;;;;4975698;28;20031;-45
2022/04/19 13:35:45;;;;;;;3.60;3.10;;;18.00;55.10;;;;;;4976729;28;20520;-47
2022/04/19 13:38:23;;;;;;;3.15;2.63;;;18.00;55.50;;;;;;4976198;28;20102;-46